Andrus Island, California
Current Conditions -  °F | °C
As of 7:10 AM on Friday 28 Nov 2014 (Local Time) from KVCB Reporting Station
Moderate Fog Moderate Fog  
Wind Chill: 36°   Ceiling: 200
Heat Index: 36°   Visibility: 0.5mi
Dew Point: 35°   Wind: 0mph
Humidity: 97%   Direction: NA
Pressure: 30.01"   Gusts: NA
Location:  38.1457°N, 121.624°W
Report Text: KVCB 281510Z AUTO 00000KT 1/2SM FG VV002 02/02 A3001 RMK AO2 T00220017 TSNO
Loading
Personal Weather Stations






























Interactive Weather Map New forecast layout! Learn more

10-Day Weather Forecast

Advertisements
Track Severe Weather on mobile